Time;durP1;ratioP1;P1;durP2;ratioP2;P2;SDS_P1;SDS_P2;PMS_P1;PMS_P2;Temp;Humidity;BMP_temperature;BMP_pressure;BME280_temperature;BME280_humidity;BME280_pressure;Samples;Min_cycle;Max_cycle;Signal;HPM_P1;HPM_P2
2023/03/11 00:00:38;;;;;;;14.20;11.43;;;0.20;23.70;;;;;;5038231;28;20274;-77
2023/03/11 00:03:05;;;;;;;12.90;10.83;;;0.30;46.00;;;;;;5037705;28;20190;-78
2023/03/11 00:05:34;;;;;;;13.87;10.83;;;0.30;48.20;;;;;;5038851;28;20202;-78
2023/03/11 00:08:00;;;;;;;14.17;10.83;;;0.30;65.90;;;;;;5045646;28;20186;-79
2023/03/11 00:10:35;;;;;;;13.93;10.93;;;0.30;74.30;;;;;;5038864;28;20209;-79
2023/03/11 00:13:02;;;;;;;15.20;11.93;;;0.40;71.70;;;;;;5053091;28;20186;-78
2023/03/11 00:15:29;;;;;;;15.73;12.60;;;0.40;67.40;;;;;;5045051;28;20594;-79
2023/03/11 00:17:56;;;;;;;14.20;11.43;;;0.30;45.50;;;;;;5039693;28;20265;-77
2023/03/11 00:20:28;;;;;;;15.53;12.60;;;0.30;24.80;;;;;;5039826;28;20185;-79
2023/03/11 00:22:54;;;;;;;14.57;11.83;;;0.30;19.50;;;;;;5038861;28;20195;-77
2023/03/11 00:25:21;;;;;;;15.90;11.83;;;0.20;15.60;;;;;;5036575;28;20216;-78
2023/03/11 00:27:47;;;;;;;14.00;11.43;;;0.40;22.00;;;;;;5053133;28;20233;-79
2023/03/11 00:30:14;;;;;;;14.03;11.37;;;0.30;4.30;;;;;;5044681;28;20191;-79
2023/03/11 00:32:40;;;;;;;14.67;11.53;;;0.30;1.00;;;;;;5037760;28;20282;-79
2023/03/11 00:35:06;;;;;;;14.80;12.20;;;0.40;1.00;;;;;;5052677;28;20202;-77
2023/03/11 00:37:32;;;;;;;14.50;12.03;;;0.40;1.00;;;;;;5038957;28;20210;-79
2023/03/11 00:39:59;;;;;;;14.73;12.13;;;0.40;1.00;;;;;;5037143;28;20186;-78
2023/03/11 00:42:24;;;;;;;13.87;10.93;;;0.30;1.00;;;;;;5037532;28;20179;-78
2023/03/11 00:44:50;;;;;;;16.70;11.93;;;0.30;1.00;;;;;;5039074;28;20201;-78
2023/03/11 00:47:16;;;;;;;12.47;10.70;;;0.30;1.00;;;;;;5039130;28;20187;-78
2023/03/11 00:49:41;;;;;;;15.17;12.10;;;0.30;1.00;;;;;;5037046;28;20199;-78
2023/03/11 00:52:07;;;;;;;14.93;12.50;;;0.30;1.00;;;;;;5036426;28;20220;-79
2023/03/11 00:54:33;;;;;;;16.43;13.23;;;0.30;1.00;;;;;;5039228;28;20213;-77
2023/03/11 00:56:58;;;;;;;15.87;12.40;;;0.30;1.00;;;;;;5034699;28;20257;-77
2023/03/11 00:59:24;;;;;;;15.83;12.97;;;0.30;1.00;;;;;;5052774;28;20185;-78
2023/03/11 01:01:50;;;;;;;18.23;12.83;;;0.40;1.00;;;;;;5037167;28;20245;-78
2023/03/11 01:04:15;;;;;;;18.50;14.00;;;0.40;1.00;;;;;;5051495;28;20289;-77
2023/03/11 01:06:41;;;;;;;17.83;13.83;;;0.40;1.00;;;;;;5036237;28;20200;-78
2023/03/11 01:09:06;;;;;;;17.87;13.97;;;0.40;1.00;;;;;;5039012;28;20214;-78
2023/03/11 01:11:32;;;;;;;16.77;13.37;;;1.40;1.00;;;;;;5039533;28;20187;-78
2023/03/11 01:13:58;;;;;;;18.23;14.43;;;0.40;1.00;;;;;;5039166;28;20195;-79
2023/03/11 01:16:23;;;;;;;19.10;14.57;;;0.40;1.00;;;;;;5039455;28;20290;-79
2023/03/11 01:18:49;;;;;;;18.10;13.53;;;0.40;1.00;;;;;;5039742;28;20175;-77
2023/03/11 01:21:14;;;;;;;17.93;14.77;;;0.40;1.00;;;;;;5045283;28;20532;-78
2023/03/11 01:23:41;;;;;;;17.77;13.57;;;0.30;1.00;;;;;;5038382;28;20642;-78
2023/03/11 01:26:06;;;;;;;18.07;14.67;;;0.40;1.00;;;;;;5039264;28;20205;-78
2023/03/11 01:28:33;;;;;;;17.57;13.57;;;0.30;1.00;;;;;;5039270;28;20301;-79
2023/03/11 01:30:59;;;;;;;18.67;14.27;;;0.40;1.00;;;;;;5038389;28;20718;-78
2023/03/11 01:33:25;;;;;;;19.07;15.10;;;0.40;1.00;;;;;;5044550;28;20217;-78
2023/03/11 01:35:51;;;;;;;16.80;13.67;;;0.30;1.00;;;;;;5038779;28;21355;-78
2023/03/11 01:38:17;;;;;;;17.03;13.43;;;0.40;1.00;;;;;;5038632;28;20193;-79
2023/03/11 01:40:45;;;;;;;17.73;14.63;;;0.40;1.00;;;;;;5053119;28;20198;-78
2023/03/11 01:43:35;;;;;;;18.60;14.63;;;0.40;1.00;;;;;;5036841;28;20218;-78
2023/03/11 01:46:06;;;;;;;17.60;14.13;;;0.30;1.00;;;;;;5037046;28;20236;-79
2023/03/11 01:48:32;;;;;;;17.30;14.53;;;0.30;1.00;;;;;;5044989;28;20237;-79
2023/03/11 01:50:58;;;;;;;17.40;14.20;;;0.30;1.00;;;;;;5037417;28;20267;-79
2023/03/11 01:53:24;;;;;;;18.23;14.67;;;0.20;1.00;;;;;;5038058;28;20198;-78
2023/03/11 01:55:50;;;;;;;18.67;15.10;;;0.20;1.00;;;;;;5039088;28;20631;-78
2023/03/11 01:58:21;;;;;;;18.43;14.60;;;0.30;1.00;;;;;;5037779;28;20198;-78
2023/03/11 02:00:47;;;;;;;18.67;15.27;;;0.40;1.00;;;;;;5036919;28;20197;-78
2023/03/11 02:03:27;;;;;;;20.33;15.87;;;0.40;1.00;;;;;;5042521;28;20202;-79
2023/03/11 02:05:55;;;;;;;19.87;16.33;;;0.40;1.00;;;;;;5036631;28;20206;-78
2023/03/11 02:08:21;;;;;;;21.60;16.30;;;0.30;1.00;;;;;;5036993;28;20556;-78
2023/03/11 02:10:48;;;;;;;20.83;16.27;;;0.30;1.00;;;;;;5043741;28;20186;-78
2023/03/11 02:13:15;;;;;;;20.93;15.87;;;0.30;1.00;;;;;;5036485;28;20249;-78
2023/03/11 02:15:41;;;;;;;20.87;16.07;;;0.30;1.00;;;;;;5035860;28;20289;-78
2023/03/11 02:18:07;;;;;;;21.10;16.20;;;0.30;1.00;;;;;;5037080;28;20301;-78
2023/03/11 02:21:07;;;;;;;19.47;14.77;;;0.30;1.00;;;;;;5051286;28;20560;-78
2023/03/11 02:24:03;;;;;;;19.80;15.23;;;0.30;1.00;;;;;;5037908;28;20182;-78
2023/03/11 02:26:51;;;;;;;19.67;14.53;;;0.30;1.00;;;;;;5035573;28;20631;-78
2023/03/11 02:29:18;;;;;;;18.10;14.57;;;0.30;1.00;;;;;;5036579;28;20259;-78
2023/03/11 02:31:45;;;;;;;17.90;13.63;;;0.30;1.00;;;;;;5035957;28;20577;-77
2023/03/11 02:34:23;;;;;;;19.30;15.25;;;0.20;1.00;;;;;;5035697;28;20508;-78
2023/03/11 02:36:49;;;;;;;17.07;13.57;;;0.20;99.90;;;;;;5036222;28;20206;-78
2023/03/11 02:39:14;;;;;;;18.20;14.07;;;0.20;1.00;;;;;;5037110;28;20196;-78
2023/03/11 02:41:44;;;;;;;17.80;13.37;;;0.30;1.00;;;;;;5036541;28;20285;-78
2023/03/11 02:44:14;;;;;;;16.87;13.13;;;0.20;99.90;;;;;;5036063;28;20175;-78
2023/03/11 02:46:41;;;;;;;18.77;13.63;;;0.20;99.90;;;;;;5042568;28;20191;-78
2023/03/11 02:49:07;;;;;;;17.63;13.70;;;0.20;99.90;;;;;;5033419;28;20183;-78
2023/03/11 02:51:32;;;;;;;17.67;14.10;;;0.90;99.90;;;;;;5036595;28;20202;-77
2023/03/11 02:54:01;;;;;;;16.67;12.73;;;0.40;99.90;;;;;;5031276;28;20191;-77
2023/03/11 02:56:27;;;;;;;15.77;12.13;;;0.40;99.90;;;;;;5035365;28;20225;-77
2023/03/11 02:58:53;;;;;;;14.87;11.37;;;0.30;1.00;;;;;;5032090;28;20179;-78
2023/03/11 03:01:18;;;;;;;15.17;12.10;;;0.30;1.00;;;;;;5034179;28;20241;-77
2023/03/11 03:03:44;;;;;;;14.97;11.07;;;0.30;1.00;;;;;;5037130;28;20218;-77
2023/03/11 03:06:10;;;;;;;15.23;12.43;;;0.30;1.00;;;;;;5034347;28;20234;-77
2023/03/11 03:08:35;;;;;;;14.83;11.53;;;0.30;1.00;;;;;;5035560;28;20179;-78
2023/03/11 03:11:02;;;;;;;14.03;11.43;;;0.30;1.00;;;;;;5040172;28;20292;-78
2023/03/11 03:13:28;;;;;;;14.13;10.97;;;1.30;1.00;;;;;;5048770;28;20189;-77
2023/03/11 03:15:54;;;;;;;13.67;10.63;;;0.30;99.90;;;;;;5031131;28;20305;-77
2023/03/11 03:18:20;;;;;;;11.77;9.90;;;0.40;99.90;;;;;;5042604;28;20748;-78
2023/03/11 03:20:45;;;;;;;12.73;9.33;;;0.30;1.00;;;;;;5034101;28;20225;-78
2023/03/11 03:23:11;;;;;;;11.10;9.40;;;0.30;99.90;;;;;;5032850;28;20221;-78
2023/03/11 03:25:37;;;;;;;11.20;9.37;;;0.40;1.00;;;;;;5034553;28;20203;-77
2023/03/11 03:28:02;;;;;;;11.13;8.47;;;0.30;1.00;;;;;;5035715;28;20267;-78
2023/03/11 03:30:28;;;;;;;10.63;8.23;;;0.30;99.90;;;;;;5034409;28;20201;-78
2023/03/11 03:32:54;;;;;;;8.70;7.67;;;0.20;1.00;;;;;;5032469;28;20205;-76
2023/03/11 03:35:20;;;;;;;10.53;7.77;;;0.30;1.00;;;;;;5033240;28;20209;-77
2023/03/11 03:37:46;;;;;;;11.10;7.30;;;0.20;1.00;;;;;;5036667;28;20640;-75
2023/03/11 03:40:12;;;;;;;10.70;7.83;;;0.30;99.90;;;;;;5038960;28;20724;-77
2023/03/11 03:42:38;;;;;;;9.47;6.97;;;0.40;1.00;;;;;;5038971;28;20239;-77
2023/03/11 03:45:06;;;;;;;8.13;6.27;;;0.30;1.00;;;;;;5037465;28;20325;-77
2023/03/11 03:47:33;;;;;;;9.60;7.47;;;0.20;1.00;;;;;;5036658;28;20299;-77
2023/03/11 03:49:59;;;;;;;8.10;6.73;;;0.20;1.00;;;;;;5037450;28;20567;-78
2023/03/11 03:52:24;;;;;;;10.30;7.03;;;0.20;1.00;;;;;;5034611;28;21309;-78
2023/03/11 03:54:50;;;;;;;8.73;7.00;;;0.30;1.00;;;;;;5037088;28;20212;-77
2023/03/11 03:57:16;;;;;;;10.07;7.07;;;0.30;99.90;;;;;;5039391;28;20224;-78
2023/03/11 03:59:42;;;;;;;7.43;6.43;;;0.20;1.00;;;;;;5039730;28;20248;-79
2023/03/11 04:02:07;;;;;;;9.77;6.97;;;0.20;1.00;;;;;;5038728;28;20186;-79
2023/03/11 04:04:33;;;;;;;13.13;7.43;;;0.20;1.00;;;;;;5034108;28;20206;-78
2023/03/11 04:06:59;;;;;;;7.97;7.17;;;0.20;99.90;;;;;;5045679;28;20554;-77
2023/03/11 04:09:25;;;;;;;10.10;7.27;;;0.20;1.00;;;;;;5037866;28;20622;-79
2023/03/11 04:11:50;;;;;;;9.37;7.53;;;0.20;1.00;;;;;;5037526;28;20179;-78
2023/03/11 04:14:16;;;;;;;10.20;7.50;;;0.20;2.30;;;;;;5037177;28;20197;-76
2023/03/11 04:16:41;;;;;;;8.60;7.57;;;0.20;1.00;;;;;;5035456;28;20203;-78
2023/03/11 04:19:07;;;;;;;11.97;8.67;;;0.30;1.00;;;;;;5045924;28;20183;-78
2023/03/11 04:21:33;;;;;;;9.20;7.57;;;0.20;1.00;;;;;;5042441;28;20237;-77
2023/03/11 04:23:59;;;;;;;7.80;6.97;;;0.20;1.00;;;;;;5035621;28;20187;-78
2023/03/11 04:26:24;;;;;;;8.10;6.83;;;0.30;1.00;;;;;;5039638;28;20210;-77
2023/03/11 04:28:50;;;;;;;9.33;7.20;;;0.20;99.90;;;;;;5041891;28;20270;-77
2023/03/11 04:31:16;;;;;;;10.50;7.03;;;0.20;1.00;;;;;;5043993;28;20206;-79
2023/03/11 04:33:41;;;;;;;9.40;6.80;;;0.20;1.00;;;;;;5042289;28;20403;-78
2023/03/11 04:36:08;;;;;;;8.63;6.77;;;0.30;1.00;;;;;;5039989;28;20225;-78
2023/03/11 04:38:34;;;;;;;9.17;6.27;;;0.20;1.00;;;;;;5047123;28;20191;-78
2023/03/11 04:41:01;;;;;;;6.37;5.73;;;0.20;99.90;;;;;;5041940;28;20187;-78
2023/03/11 04:43:26;;;;;;;6.60;5.77;;;0.20;99.90;;;;;;5037960;28;20195;-79
2023/03/11 04:45:52;;;;;;;7.90;5.50;;;0.10;1.00;;;;;;5054105;28;20230;-77
2023/03/11 04:48:17;;;;;;;9.13;6.13;;;0.00;99.90;;;;;;5041068;28;20200;-79
2023/03/11 04:50:43;;;;;;;8.40;6.17;;;0.00;1.00;;;;;;5041676;28;20194;-79
2023/03/11 04:53:09;;;;;;;6.63;5.80;;;0.00;1.00;;;;;;5039832;28;20194;-78
2023/03/11 04:55:34;;;;;;;7.23;6.07;;;0.10;1.00;;;;;;5042101;28;20291;-77
2023/03/11 04:58:00;;;;;;;8.50;6.20;;;0.10;1.00;;;;;;5040787;28;20218;-78
2023/03/11 05:00:25;;;;;;;7.43;6.60;;;0.10;1.00;;;;;;5041043;28;20187;-79
2023/03/11 05:02:51;;;;;;;8.37;6.40;;;0.20;1.00;;;;;;5044848;28;20182;-78
2023/03/11 05:05:20;;;;;;;8.87;6.77;;;0.20;10.30;;;;;;5055771;28;20297;-79
2023/03/11 05:07:46;;;;;;;7.30;6.00;;;0.30;99.90;;;;;;5035872;28;20198;-77
2023/03/11 05:10:12;;;;;;;8.57;6.27;;;0.30;99.90;;;;;;5039352;28;20186;-79
2023/03/11 05:12:37;;;;;;;9.27;7.00;;;0.30;1.00;;;;;;5037823;28;20198;-79
2023/03/11 05:15:03;;;;;;;8.23;6.87;;;0.20;1.00;;;;;;5038514;28;20197;-78
2023/03/11 05:17:29;;;;;;;9.90;7.20;;;0.30;99.90;;;;;;5041732;28;20233;-78
2023/03/11 05:19:54;;;;;;;8.87;6.43;;;0.30;97.50;;;;;;5038947;28;20270;-78
2023/03/11 05:22:20;;;;;;;10.83;7.53;;;0.30;99.90;;;;;;5042490;28;20227;-77
2023/03/11 05:24:46;;;;;;;11.23;8.00;;;0.30;99.90;;;;;;5034901;28;20203;-77
2023/03/11 05:27:15;;;;;;;12.20;7.60;;;0.20;99.90;;;;;;5040166;28;20190;-79
2023/03/11 05:29:41;;;;;;;9.50;7.13;;;0.30;99.90;;;;;;5038925;28;20182;-79
2023/03/11 05:32:07;;;;;;;10.53;6.73;;;0.10;1.00;;;;;;5039273;28;20186;-78
2023/03/11 05:34:32;;;;;;;8.87;6.40;;;0.10;1.00;;;;;;5039801;28;20219;-80
2023/03/11 05:36:58;;;;;;;9.73;6.03;;;0.10;2.00;;;;;;5039408;28;20328;-80
2023/03/11 05:39:23;;;;;;;6.40;5.73;;;0.10;1.00;;;;;;5040828;28;20211;-78
2023/03/11 05:41:49;;;;;;;6.67;5.47;;;0.10;1.00;;;;;;5039736;28;20265;-78
2023/03/11 05:44:14;;;;;;;9.07;4.83;;;0.00;99.90;;;;;;5037520;28;20190;-79
2023/03/11 05:46:40;;;;;;;6.10;4.57;;;0.00;36.40;;;;;;5040788;28;20183;-78
2023/03/11 05:49:05;;;;;;;7.57;5.10;;;-0.10;1.00;;;;;;5041211;28;20178;-79
2023/03/11 05:51:31;;;;;;;8.20;5.03;;;-0.10;1.00;;;;;;5040857;28;20689;-79
2023/03/11 05:53:57;;;;;;;8.70;6.17;;;-0.20;1.00;;;;;;5037682;28;20678;-79
2023/03/11 05:56:23;;;;;;;10.37;5.83;;;-0.10;99.90;;;;;;5038041;28;20206;-77
2023/03/11 05:58:49;;;;;;;6.20;5.57;;;-0.10;99.90;;;;;;5038987;28;20186;-78
2023/03/11 06:01:16;;;;;;;6.90;5.63;;;0.00;95.90;;;;;;5037925;28;20193;-79
2023/03/11 06:03:42;;;;;;;7.03;5.37;;;0.10;1.00;;;;;;5035546;28;20214;-78
2023/03/11 06:06:10;;;;;;;10.50;6.00;;;0.10;99.90;;;;;;5039289;28;20280;-79
2023/03/11 06:08:36;;;;;;;8.67;5.83;;;0.10;99.90;;;;;;5038733;28;20181;-78
2023/03/11 06:11:06;;;;;;;10.13;6.47;;;0.10;1.00;;;;;;5035899;28;20229;-77
2023/03/11 06:13:32;;;;;;;7.63;6.27;;;0.10;99.90;;;;;;5038104;28;20214;-79
2023/03/11 06:15:57;;;;;;;9.77;6.60;;;0.10;99.90;;;;;;5036903;28;20901;-78
2023/03/11 06:18:25;;;;;;;8.47;6.43;;;0.10;99.90;;;;;;5037189;28;20325;-78
2023/03/11 06:20:51;;;;;;;8.20;6.40;;;0.10;99.90;;;;;;5035919;28;20182;-78
2023/03/11 06:23:17;;;;;;;9.43;6.50;;;0.10;73.10;;;;;;5049761;28;20179;-79
2023/03/11 06:25:42;;;;;;;6.60;5.57;;;0.10;81.40;;;;;;5035320;28;20205;-78
2023/03/11 06:28:08;;;;;;;10.37;6.50;;;0.10;1.00;;;;;;5036059;28;20219;-78
2023/03/11 06:30:34;;;;;;;9.80;7.13;;;0.20;1.00;;;;;;5037891;28;20248;-79
2023/03/11 06:33:00;;;;;;;9.07;6.80;;;0.10;1.00;;;;;;5039876;28;20186;-79
2023/03/11 06:35:25;;;;;;;9.67;7.30;;;0.10;1.00;;;;;;5037629;28;20260;-78
2023/03/11 06:37:51;;;;;;;8.00;6.20;;;0.20;1.00;;;;;;5037838;28;20553;-79
2023/03/11 06:40:17;;;;;;;8.30;6.13;;;0.20;1.00;;;;;;5041660;28;20183;-79
2023/03/11 06:42:46;;;;;;;9.63;6.87;;;0.30;1.00;;;;;;5031706;28;20192;-78
2023/03/11 06:45:11;;;;;;;11.07;6.87;;;0.30;1.00;;;;;;5032195;28;20208;-79
2023/03/11 06:47:37;;;;;;;9.03;5.87;;;0.40;1.00;;;;;;5037369;28;20623;-79
2023/03/11 06:50:06;;;;;;;7.47;6.20;;;0.40;99.90;;;;;;5038743;28;20241;-79
2023/03/11 06:52:31;;;;;;;8.43;6.27;;;0.30;99.90;;;;;;5037346;28;20182;-79
2023/03/11 06:54:57;;;;;;;11.03;6.77;;;0.30;99.90;;;;;;5052697;28;20214;-79
2023/03/11 06:57:22;;;;;;;9.07;6.33;;;0.30;99.90;;;;;;5036165;28;20561;-79
2023/03/11 06:59:48;;;;;;;8.77;6.30;;;0.40;99.90;;;;;;5036846;28;20609;-79
2023/03/11 07:02:14;;;;;;;8.67;5.37;;;1.10;1.00;;;;;;5037233;28;20370;-78
2023/03/11 07:04:39;;;;;;;8.10;5.20;;;0.40;99.90;;;;;;5035211;28;20211;-79
2023/03/11 07:07:05;;;;;;;7.53;5.40;;;0.40;99.90;;;;;;5037321;28;20194;-79
2023/03/11 07:09:30;;;;;;;9.93;5.80;;;0.40;99.90;;;;;;5037700;28;20191;-78
2023/03/11 07:11:56;;;;;;;7.60;5.30;;;0.40;99.90;;;;;;5036604;28;20190;-79
2023/03/11 07:14:22;;;;;;;8.63;4.73;;;0.40;99.90;;;;;;5037418;28;20642;-79
2023/03/11 07:16:48;;;;;;;6.13;4.27;;;0.40;99.90;;;;;;5037962;28;20216;-79
2023/03/11 07:19:13;;;;;;;7.40;4.83;;;0.40;99.90;;;;;;5035506;28;20245;-78
2023/03/11 07:21:39;;;;;;;5.90;4.40;;;0.40;99.90;;;;;;5034991;28;20187;-78
2023/03/11 07:24:05;;;;;;;8.10;5.20;;;0.40;99.10;;;;;;5033300;28;20195;-78
2023/03/11 07:26:32;;;;;;;8.37;4.87;;;0.40;99.90;;;;;;5034445;28;20271;-78
2023/03/11 07:28:58;;;;;;;7.87;4.97;;;0.50;99.90;;;;;;5050936;28;20228;-78
2023/03/11 07:31:30;;;;;;;9.40;4.60;;;0.40;99.90;;;;;;5037354;28;20283;-78
2023/03/11 07:33:58;;;;;;;7.73;4.77;;;0.40;99.90;;;;;;5034642;28;20247;-78
2023/03/11 07:36:25;;;;;;;5.80;4.60;;;0.60;1.00;;;;;;5037536;28;20206;-76
2023/03/11 07:38:59;;;;;;;8.10;4.47;;;0.60;1.00;;;;;;5037885;28;20186;-77
2023/03/11 07:41:26;;;;;;;9.00;4.63;;;0.60;99.90;;;;;;5037985;28;20181;-77
2023/03/11 07:43:56;;;;;;;6.83;4.80;;;0.60;99.90;;;;;;5036516;28;20723;-78
2023/03/11 07:46:23;;;;;;;11.87;5.67;;;0.60;99.90;;;;;;5036648;28;20202;-76
2023/03/11 07:48:50;;;;;;;8.77;5.90;;;0.60;99.90;;;;;;5035208;28;20197;-79
2023/03/11 07:51:21;;;;;;;10.00;5.50;;;0.60;99.90;;;;;;5036045;28;20195;-77
2023/03/11 07:53:47;;;;;;;9.57;6.20;;;0.70;99.90;;;;;;5037013;28;20178;-79
2023/03/11 07:56:15;;;;;;;11.67;6.20;;;0.90;99.90;;;;;;5036172;28;20602;-79
2023/03/11 07:58:41;;;;;;;8.63;6.70;;;0.80;1.00;;;;;;5036945;28;20676;-77
2023/03/11 08:01:18;;;;;;;9.73;6.73;;;0.80;1.00;;;;;;5037030;28;20641;-76
2023/03/11 08:03:45;;;;;;;11.57;7.70;;;0.80;1.00;;;;;;5039860;28;20225;-79
2023/03/11 08:06:20;;;;;;;14.00;8.00;;;0.70;99.90;;;;;;5047446;28;20709;-78
2023/03/11 08:08:47;;;;;;;14.90;8.40;;;0.80;1.00;;;;;;5041088;28;20182;-78
2023/03/11 08:11:13;;;;;;;10.43;7.70;;;0.80;1.00;;;;;;5039982;28;20232;-78
2023/03/11 08:13:40;;;;;;;13.03;7.90;;;0.80;99.90;;;;;;5039360;28;20183;-78
2023/03/11 08:16:07;;;;;;;10.33;7.77;;;0.70;1.00;;;;;;5040567;28;20215;-78
2023/03/11 08:18:33;;;;;;;13.13;7.60;;;0.60;99.90;;;;;;5039514;28;20218;-76
2023/03/11 08:21:07;;;;;;;10.23;7.97;;;0.60;1.00;;;;;;5037300;28;20265;-77
2023/03/11 08:23:33;;;;;;;8.37;6.67;;;0.70;1.00;;;;;;5039774;28;20503;-77
2023/03/11 08:26:02;;;;;;;12.53;7.00;;;0.70;1.00;;;;;;5057299;28;20210;-76
2023/03/11 08:28:28;;;;;;;11.67;6.57;;;0.80;1.00;;;;;;5040915;28;20301;-77
2023/03/11 08:30:53;;;;;;;10.17;6.30;;;0.90;1.00;;;;;;5057009;28;20253;-77
2023/03/11 08:33:19;;;;;;;8.47;5.30;;;1.00;1.00;;;;;;5042998;28;20220;-78
2023/03/11 08:35:45;;;;;;;5.97;4.97;;;1.10;99.90;;;;;;5043197;28;20238;-77
2023/03/11 08:38:10;;;;;;;6.97;5.40;;;1.10;99.90;;;;;;5040840;28;20220;-76
2023/03/11 08:40:36;;;;;;;8.73;6.07;;;1.20;99.90;;;;;;5040212;28;20187;-79
2023/03/11 08:43:01;;;;;;;6.30;5.37;;;1.10;99.90;;;;;;5039309;28;20189;-78
2023/03/11 08:45:27;;;;;;;7.73;5.80;;;1.10;82.80;;;;;;5037002;28;20197;-78
2023/03/11 08:47:53;;;;;;;9.57;6.70;;;1.10;99.90;;;;;;5038193;28;20194;-77
2023/03/11 08:50:19;;;;;;;14.80;7.70;;;1.20;99.90;;;;;;5036721;28;20186;-77
2023/03/11 08:52:45;;;;;;;22.43;14.20;;;1.20;1.00;;;;;;5035808;28;20201;-75
2023/03/11 08:55:13;;;;;;;13.97;9.63;;;1.20;1.00;;;;;;5047239;28;20889;-77
2023/03/11 08:57:41;;;;;;;26.13;18.83;;;1.20;1.00;;;;;;5033705;28;20206;-77
2023/03/11 09:00:08;;;;;;;13.57;8.73;;;1.20;1.00;;;;;;5032728;28;20359;-77
2023/03/11 09:02:33;;;;;;;13.17;8.90;;;1.20;1.00;;;;;;5032082;28;20194;-77
2023/03/11 09:04:59;;;;;;;9.00;5.90;;;1.20;1.00;;;;;;5032050;28;20205;-78
2023/03/11 09:07:25;;;;;;;10.67;6.20;;;1.30;1.00;;;;;;5029201;28;20193;-78
2023/03/11 09:09:51;;;;;;;10.03;5.87;;;1.30;1.00;;;;;;5035214;28;20244;-79
2023/03/11 09:12:17;;;;;;;9.20;6.10;;;1.30;1.00;;;;;;5035220;28;20195;-76
2023/03/11 09:14:43;;;;;;;7.90;6.13;;;1.40;1.00;;;;;;5042679;28;20245;-77
2023/03/11 09:17:10;;;;;;;7.83;6.07;;;1.40;1.00;;;;;;5028370;28;20467;-77
2023/03/11 09:19:37;;;;;;;10.53;6.63;;;1.50;1.00;;;;;;5030087;28;20221;-78
2023/03/11 09:22:04;;;;;;;9.70;6.97;;;1.60;1.00;;;;;;5048087;28;20183;-78
2023/03/11 09:24:33;;;;;;;8.27;5.53;;;1.50;1.00;;;;;;5040130;28;20254;-76
2023/03/11 09:26:58;;;;;;;7.33;6.17;;;1.60;1.00;;;;;;5029067;28;20187;-76
2023/03/11 09:29:24;;;;;;;8.23;5.83;;;1.60;99.90;;;;;;5031781;28;20509;-76
2023/03/11 09:31:51;;;;;;;7.17;5.93;;;1.70;99.90;;;;;;5030194;28;20226;-76
2023/03/11 09:34:17;;;;;;;8.37;5.90;;;1.70;99.90;;;;;;5029229;28;20190;-77
2023/03/11 09:36:43;;;;;;;8.60;6.00;;;1.80;99.90;;;;;;5031114;28;20206;-77
2023/03/11 09:39:09;;;;;;;8.80;5.70;;;1.90;99.90;;;;;;5031292;28;20662;-77
2023/03/11 09:41:48;;;;;;;6.60;5.47;;;1.90;99.90;;;;;;5036742;28;20671;-77
2023/03/11 09:44:38;;;;;;;6.23;5.03;;;1.90;99.90;;;;;;5034006;28;20460;-77
2023/03/11 09:47:29;;;;;;;7.83;5.53;;;1.30;99.90;;;;;;5036547;28;20198;-77
2023/03/11 09:50:07;;;;;;;7.47;5.00;;;2.10;99.90;;;;;;5026890;28;20194;-77
2023/03/11 09:52:45;;;;;;;7.90;5.13;;;2.60;99.90;;;;;;5040300;28;20209;-76
2023/03/11 09:55:31;;;;;;;5.47;4.47;;;2.30;99.90;;;;;;5037295;28;20610;-77
2023/03/11 09:58:00;;;;;;;7.50;4.70;;;2.80;99.90;;;;;;5028737;28;20635;-77
2023/03/11 10:00:26;;;;;;;7.70;4.20;;;2.70;99.90;;;;;;5026257;28;20186;-77
2023/03/11 10:02:52;;;;;;;6.70;4.60;;;2.70;99.90;;;;;;5023336;28;20186;-76
2023/03/11 10:05:28;;;;;;;6.33;4.60;;;2.60;99.90;;;;;;5022755;28;20210;-77
2023/03/11 10:08:18;;;;;;;7.37;4.50;;;2.40;99.90;;;;;;5035079;28;20197;-77
2023/03/11 10:10:59;;;;;;;6.60;4.33;;;2.40;99.90;;;;;;5028819;28;20699;-77
2023/03/11 10:13:45;;;;;;;7.33;5.00;;;2.60;99.90;;;;;;5031025;28;20469;-77
2023/03/11 10:16:24;;;;;;;7.63;4.43;;;2.80;99.90;;;;;;5029181;28;20594;-77
2023/03/11 10:19:23;;;;;;;7.13;4.93;;;2.80;99.90;;;;;;5043384;28;20193;-77
2023/03/11 10:22:12;;;;;;;7.43;4.93;;;3.00;99.90;;;;;;5028960;28;20325;-75
2023/03/11 10:25:02;;;;;;;8.47;6.50;;;2.90;99.90;;;;;;5030667;28;20623;-77
2023/03/11 10:27:55;;;;;;;6.57;5.30;;;2.70;99.90;;;;;;5051615;28;20198;-76
2023/03/11 10:30:42;;;;;;;6.30;5.30;;;2.80;99.90;;;;;;5045606;28;20195;-77
2023/03/11 10:33:30;;;;;;;5.20;4.70;;;2.80;99.90;;;;;;5036801;28;20178;-77
2023/03/11 10:36:02;;;;;;;5.23;4.33;;;2.70;99.90;;;;;;5045162;28;20664;-77
2023/03/11 10:38:39;;;;;;;6.00;5.23;;;2.70;99.90;;;;;;5031437;28;20333;-77
2023/03/11 10:41:13;;;;;;;6.53;5.03;;;2.60;99.90;;;;;;5026215;28;20248;-78
2023/03/11 10:43:49;;;;;;;5.83;4.80;;;2.60;99.90;;;;;;5027709;28;20190;-79
2023/03/11 10:46:21;;;;;;;9.30;4.77;;;2.70;99.90;;;;;;5027664;28;20209;-79
2023/03/11 10:48:47;;;;;;;6.33;4.40;;;2.90;99.90;;;;;;5027353;28;20194;-78
2023/03/11 10:51:21;;;;;;;4.87;4.37;;;3.00;99.90;;;;;;5028784;28;20672;-76
2023/03/11 10:53:51;;;;;;;8.17;4.77;;;2.90;99.90;;;;;;5029753;28;20193;-77
2023/03/11 10:56:28;;;;;;;7.17;4.90;;;2.70;99.90;;;;;;5034556;28;20260;-81
2023/03/11 10:58:54;;;;;;;4.80;4.00;;;2.50;99.90;;;;;;5050613;28;20194;-78
2023/03/11 11:01:20;;;;;;;5.90;4.27;;;2.20;99.90;;;;;;5032430;28;20240;-78
2023/03/11 11:03:48;;;;;;;11.37;8.67;;;2.10;99.90;;;;;;5031180;28;20191;-82
2023/03/11 11:06:20;;;;;;;6.83;5.17;;;2.10;99.90;;;;;;5038283;28;20210;-77
2023/03/11 11:08:45;;;;;;;10.07;6.27;;;1.90;99.90;;;;;;5031519;28;20294;-78
2023/03/11 11:11:22;;;;;;;8.50;5.20;;;2.10;99.90;;;;;;5033116;28;20266;-78
2023/03/11 11:13:56;;;;;;;9.73;5.60;;;2.40;99.90;;;;;;5039206;28;20488;-78
2023/03/11 11:16:22;;;;;;;7.30;5.13;;;2.50;99.90;;;;;;5034593;28;20198;-78
2023/03/11 11:18:56;;;;;;;5.83;4.70;;;2.60;99.90;;;;;;5034546;28;20290;-79
2023/03/11 11:21:30;;;;;;;5.50;4.60;;;2.50;99.90;;;;;;5033725;28;20217;-78
2023/03/11 11:24:25;;;;;;;5.13;4.43;;;2.50;99.90;;;;;;5025501;28;20202;-78
2023/03/11 11:27:15;;;;;;;5.83;4.27;;;2.70;99.90;;;;;;5034827;28;20187;-78
2023/03/11 11:29:42;;;;;;;5.77;4.30;;;2.70;92.30;;;;;;5027935;28;20222;-78
2023/03/11 11:32:24;;;;;;;8.40;4.40;;;2.80;99.90;;;;;;5026780;28;20628;-78
2023/03/11 11:35:00;;;;;;;5.57;3.60;;;2.90;99.90;;;;;;5032542;28;20213;-79
2023/03/11 11:37:30;;;;;;;5.57;3.47;;;2.50;74.00;;;;;;5034767;28;20252;-78
2023/03/11 11:40:14;;;;;;;6.03;2.80;;;2.50;51.00;;;;;;5035739;28;20233;-78
2023/03/11 11:43:05;;;;;;;5.60;3.37;;;2.30;41.10;;;;;;5045743;28;20666;-78
2023/03/11 11:45:36;;;;;;;7.00;4.03;;;2.20;65.00;;;;;;5042418;28;20215;-80
2023/03/11 11:48:14;;;;;;;7.03;3.63;;;2.10;73.70;;;;;;5035364;28;20552;-80
2023/03/11 11:50:47;;;;;;;6.20;3.43;;;2.10;54.00;;;;;;5030051;28;20652;-79
2023/03/11 11:53:42;;;;;;;5.97;4.17;;;2.30;98.40;;;;;;5048798;28;20191;-79
2023/03/11 11:56:08;;;;;;;6.93;3.97;;;2.50;99.90;;;;;;5048726;28;20210;-79
2023/03/11 11:58:34;;;;;;;7.17;4.20;;;2.60;95.80;;;;;;5040262;28;20245;-78
2023/03/11 12:01:18;;;;;;;5.10;3.20;;;2.70;98.00;;;;;;5038623;28;20186;-79
2023/03/11 12:03:55;;;;;;;6.90;3.50;;;2.60;47.40;;;;;;5034643;28;20193;-78
2023/03/11 12:06:47;;;;;;;6.43;3.67;;;2.50;70.00;;;;;;5041053;28;20677;-79
2023/03/11 12:09:48;;;;;;;4.87;3.60;;;2.60;89.00;;;;;;5050468;28;20220;-79
2023/03/11 12:12:18;;;;;;;7.20;4.13;;;2.80;84.90;;;;;;5029721;28;20644;-78
2023/03/11 12:14:55;;;;;;;5.80;4.20;;;2.60;73.30;;;;;;5041915;28;20214;-78
2023/03/11 12:17:23;;;;;;;4.83;3.33;;;2.80;88.10;;;;;;5037582;28;20580;-80
2023/03/11 12:20:10;;;;;;;4.50;3.00;;;3.00;75.80;;;;;;5037701;28;20186;-79
2023/03/11 12:22:54;;;;;;;6.30;3.50;;;3.10;72.90;;;;;;5037930;28;20445;-77
2023/03/11 12:25:35;;;;;;;5.20;2.97;;;3.20;74.70;;;;;;5037249;28;20213;-79
2023/03/11 12:28:07;;;;;;;5.60;3.13;;;3.10;38.70;;;;;;5033976;28;20202;-79
2023/03/11 12:30:40;;;;;;;5.60;3.30;;;3.20;57.00;;;;;;5034017;28;20240;-77
2023/03/11 12:33:29;;;;;;;3.80;3.10;;;3.50;82.40;;;;;;5040985;28;20637;-80
2023/03/11 12:35:57;;;;;;;3.87;2.97;;;3.80;60.20;;;;;;5037665;28;20214;-79
2023/03/11 12:38:44;;;;;;;4.93;2.23;;;3.90;50.60;;;;;;5034779;28;20454;-80
2023/03/11 12:41:12;;;;;;;3.50;2.57;;;4.00;23.60;;;;;;5034126;28;20665;-78
2023/03/11 12:43:40;;;;;;;5.87;2.60;;;4.00;12.70;;;;;;5044097;28;20186;-79
2023/03/11 12:46:16;;;;;;;3.93;2.70;;;3.90;24.30;;;;;;5033561;28;20210;-77
2023/03/11 12:49:09;;;;;;;6.20;2.13;;;3.90;15.70;;;;;;5040993;28;20269;-80
2023/03/11 12:51:36;;;;;;;5.23;2.17;;;3.80;7.10;;;;;;5033049;28;20835;-79
2023/03/11 12:54:20;;;;;;;4.63;2.63;;;4.00;1.00;;;;;;5031311;28;20182;-79
2023/03/11 12:56:54;;;;;;;8.00;3.23;;;4.00;10.70;;;;;;5034943;28;20213;-80
2023/03/11 12:59:48;;;;;;;3.33;2.33;;;3.80;1.00;;;;;;5032772;28;20194;-79
2023/03/11 13:02:29;;;;;;;9.27;3.47;;;3.70;10.40;;;;;;5033612;28;20213;-79
2023/03/11 13:05:27;;;;;;;6.30;4.00;;;3.80;6.80;;;;;;5033745;28;20356;-80
2023/03/11 13:08:00;;;;;;;4.67;3.40;;;4.00;12.10;;;;;;5034876;28;20191;-78